createdAt,value
2019-05-20T00:00:45.678Z,42.38
2019-05-20T00:03:21.785Z,38.73
2019-05-20T00:05:59.198Z,38.73
2019-05-20T00:08:35.614Z,38.30
2019-05-20T00:11:11.950Z,35.52
2019-05-20T00:13:48.481Z,39.55
2019-05-20T00:16:25.488Z,35.28
2019-05-20T00:19:02.180Z,30.92
2019-05-20T00:21:38.730Z,33.73
2019-05-20T00:24:15.745Z,33.80
2019-05-20T00:26:52.584Z,33.35
2019-05-20T00:29:29.143Z,30.30
2019-05-20T00:32:06.272Z,35.10
2019-05-20T00:34:42.852Z,41.80
2019-05-20T00:37:19.467Z,36.93
2019-05-20T00:39:55.890Z,38.78
2019-05-20T00:42:32.761Z,37.80
2019-05-20T00:45:10.357Z,30.00
2019-05-20T00:47:47.158Z,38.13
2019-05-20T00:50:23.773Z,32.28
2019-05-20T00:53:00.930Z,35.85
2019-05-20T00:55:38.666Z,33.83
2019-05-20T00:58:15.189Z,31.30
2019-05-20T01:00:51.850Z,33.30
2019-05-20T01:03:30.025Z,35.50
2019-05-20T01:06:07.486Z,38.50
2019-05-20T01:08:44.212Z,26.52
2019-05-20T01:11:30.253Z,33.18
2019-05-20T01:14:07.161Z,32.38
2019-05-20T01:16:44.270Z,28.95
2019-05-20T01:19:21.367Z,31.65
2019-05-20T01:21:58.015Z,33.05
2019-05-20T01:24:34.462Z,29.18
2019-05-20T01:27:11.067Z,25.57
2019-05-20T01:29:48.620Z,34.90
2019-05-20T01:32:25.115Z,37.35
2019-05-20T01:35:01.916Z,33.35
2019-05-20T01:37:38.646Z,29.50
2019-05-20T01:40:15.243Z,32.25
2019-05-20T01:42:52.037Z,30.37
2019-05-20T01:45:28.593Z,29.25
2019-05-20T01:48:05.528Z,28.00
2019-05-20T01:50:41.849Z,24.43
2019-05-20T01:53:18.754Z,31.93
2019-05-20T01:55:54.749Z,31.05
2019-05-20T01:58:31.143Z,26.95
2019-05-20T02:01:08.118Z,26.57
2019-05-20T02:03:45.172Z,28.32
2019-05-20T02:06:21.654Z,24.55
2019-05-20T02:08:58.073Z,30.88
2019-05-20T02:11:34.568Z,26.35
2019-05-20T02:14:14.613Z,24.55
2019-05-20T02:16:51.187Z,26.05
2019-05-20T02:19:27.441Z,20.27
2019-05-20T02:22:04.262Z,26.93
2019-05-20T02:24:40.352Z,25.85
2019-05-20T02:27:17.223Z,24.85
2019-05-20T02:29:53.885Z,28.20
2019-05-20T02:32:30.636Z,34.70
2019-05-20T02:35:07.422Z,32.10
2019-05-20T02:37:44.268Z,21.27
2019-05-20T02:40:21.360Z,28.65
2019-05-20T02:42:57.845Z,25.32
2019-05-20T02:45:34.373Z,22.25
2019-05-20T02:48:11.010Z,28.30
2019-05-20T02:50:47.654Z,30.40
2019-05-20T02:53:23.783Z,32.33
2019-05-20T02:55:59.788Z,25.57
2019-05-20T02:58:36.376Z,20.88
2019-05-20T03:01:14.019Z,24.67
2019-05-20T03:04:09.465Z,22.87
2019-05-20T03:06:28.641Z,22.73
2019-05-20T03:09:06.441Z,24.77
2019-05-20T03:11:42.768Z,30.48
2019-05-20T03:14:19.919Z,34.33
2019-05-20T03:16:57.246Z,28.10
2019-05-20T03:19:33.755Z,28.50
2019-05-20T03:22:10.407Z,26.15
2019-05-20T03:24:47.870Z,29.57
2019-05-20T03:27:24.398Z,22.17
2019-05-20T03:30:00.978Z,27.93
2019-05-20T03:32:38.292Z,21.27
2019-05-20T03:35:15.795Z,17.70
2019-05-20T03:37:52.436Z,29.32
2019-05-20T03:40:29.011Z,24.75
2019-05-20T03:43:06.358Z,25.12
2019-05-20T03:45:43.707Z,23.07
2019-05-20T03:48:20.307Z,24.60
2019-05-20T03:50:57.261Z,27.37
2019-05-20T03:53:34.035Z,27.90
2019-05-20T03:56:11.119Z,18.30
2019-05-20T03:58:48.948Z,23.20
2019-05-20T04:01:25.824Z,27.58
2019-05-20T04:04:02.714Z,33.75
2019-05-20T04:06:39.672Z,28.25
2019-05-20T04:09:17.422Z,26.48
2019-05-20T04:11:54.106Z,22.37
2019-05-20T04:14:30.917Z,22.77
2019-05-20T04:17:08.836Z,19.05
2019-05-20T04:19:45.500Z,27.93
2019-05-20T04:22:22.250Z,19.90
2019-05-20T04:24:59.798Z,21.00
2019-05-20T04:27:38.093Z,25.40
2019-05-20T04:30:18.683Z,23.55
2019-05-20T04:32:52.811Z,20.68
2019-05-20T04:35:29.308Z,25.52
2019-05-20T04:38:06.103Z,25.48
2019-05-20T04:40:42.410Z,18.40
2019-05-20T04:43:19.018Z,20.37
2019-05-20T04:45:56.972Z,17.80
2019-05-20T04:48:33.594Z,23.90
2019-05-20T04:51:10.283Z,20.20
2019-05-20T04:53:47.369Z,29.60
2019-05-20T04:56:23.757Z,22.58
2019-05-20T04:58:59.980Z,20.80
2019-05-20T05:01:36.508Z,21.17
2019-05-20T05:04:12.527Z,18.27
2019-05-20T05:06:48.600Z,19.20
2019-05-20T05:09:25.011Z,16.25
2019-05-20T05:12:01.293Z,25.77
2019-05-20T05:14:37.844Z,18.67
2019-05-20T05:17:14.403Z,16.67
2019-05-20T05:19:50.693Z,16.55
2019-05-20T05:22:27.564Z,22.98
2019-05-20T05:25:04.375Z,21.35
2019-05-20T05:27:40.880Z,21.62
2019-05-20T05:30:19.726Z,20.72
2019-05-20T05:32:56.269Z,23.35
2019-05-20T05:35:32.808Z,21.93
2019-05-20T05:38:09.539Z,22.82
2019-05-20T05:40:45.887Z,20.72
2019-05-20T05:43:22.877Z,20.88
2019-05-20T05:45:59.300Z,19.70
2019-05-20T05:48:35.673Z,21.50
2019-05-20T05:51:12.074Z,23.45
2019-05-20T05:53:48.513Z,20.00
2019-05-20T05:56:25.442Z,22.98
2019-05-20T05:59:01.959Z,19.35
2019-05-20T06:01:38.370Z,17.73
2019-05-20T06:04:14.857Z,23.42
2019-05-20T06:06:51.701Z,23.20
2019-05-20T06:09:28.086Z,21.15
2019-05-20T06:12:04.899Z,19.20
2019-05-20T06:14:44.819Z,18.48
2019-05-20T06:17:21.883Z,19.07
2019-05-20T06:19:59.700Z,25.10
2019-05-20T06:22:35.991Z,19.30
2019-05-20T06:25:12.476Z,18.00
2019-05-20T06:27:49.387Z,23.02
2019-05-20T06:30:28.701Z,18.70
2019-05-20T06:33:04.986Z,18.07
2019-05-20T06:35:41.378Z,17.70
2019-05-20T06:38:35.626Z,20.50
2019-05-20T06:41:12.035Z,20.57
2019-05-20T06:43:49.347Z,19.60
2019-05-20T06:46:26.154Z,14.33
2019-05-20T06:49:02.947Z,18.20
2019-05-20T06:51:39.582Z,20.00
2019-05-20T06:54:16.195Z,19.30
2019-05-20T06:56:52.575Z,18.55
2019-05-20T06:59:28.948Z,16.55
2019-05-20T07:02:06.722Z,16.32
2019-05-20T07:04:42.999Z,18.65
2019-05-20T07:07:21.287Z,19.67
2019-05-20T07:09:58.155Z,19.07
2019-05-20T07:12:41.264Z,15.40
2019-05-20T07:15:13.717Z,20.12
2019-05-20T07:17:50.673Z,15.13
2019-05-20T07:20:27.065Z,19.37
2019-05-20T07:23:04.206Z,16.55
2019-05-20T07:25:40.852Z,18.87
2019-05-20T07:28:18.317Z,20.77
2019-05-20T07:30:55.423Z,15.93
2019-05-20T07:33:32.004Z,16.35
2019-05-20T07:36:10.128Z,22.73
2019-05-20T07:38:46.789Z,15.55
2019-05-20T07:41:41.733Z,15.88
2019-05-20T07:44:17.012Z,19.00
2019-05-20T07:46:54.533Z,17.73
2019-05-20T07:49:31.490Z,15.70
2019-05-20T07:52:08.653Z,22.87
2019-05-20T07:54:48.001Z,15.78
2019-05-20T07:57:27.001Z,18.07
2019-05-20T08:00:03.988Z,18.17
2019-05-20T08:02:41.444Z,21.77
2019-05-20T08:05:18.021Z,19.98
2019-05-20T08:07:54.764Z,19.70
2019-05-20T08:10:31.413Z,18.95
2019-05-20T08:13:09.086Z,22.07
2019-05-20T08:15:45.770Z,18.73
2019-05-20T08:18:22.504Z,19.10
2019-05-20T08:20:59.177Z,20.43
2019-05-20T08:23:36.097Z,22.82
2019-05-20T08:26:12.225Z,19.40
2019-05-20T08:28:49.394Z,24.23
2019-05-20T08:31:26.198Z,20.60
2019-05-20T08:34:02.649Z,20.17
2019-05-20T08:36:39.824Z,19.62
2019-05-20T08:39:16.283Z,19.12
2019-05-20T08:41:52.861Z,24.95
2019-05-20T08:44:29.684Z,21.15
2019-05-20T08:47:06.387Z,20.82
2019-05-20T08:49:43.063Z,21.10
2019-05-20T08:52:20.298Z,21.82
2019-05-20T08:54:57.392Z,19.90
2019-05-20T08:57:33.540Z,17.90
2019-05-20T09:00:11.771Z,21.10
2019-05-20T09:02:55.562Z,20.32
2019-05-20T09:05:32.346Z,18.75
2019-05-20T09:08:08.963Z,22.10
2019-05-20T09:10:45.647Z,18.37
2019-05-20T09:13:24.420Z,17.07
2019-05-20T09:16:00.895Z,17.87
2019-05-20T09:18:38.195Z,15.95
2019-05-20T09:21:15.068Z,17.95
2019-05-20T09:23:53.215Z,16.07
2019-05-20T09:26:30.093Z,17.70
2019-05-20T09:29:10.783Z,16.35
2019-05-20T09:31:45.548Z,20.72
2019-05-20T09:34:22.816Z,19.27
2019-05-20T09:36:59.538Z,17.98
2019-05-20T09:39:36.193Z,20.27
2019-05-20T09:42:12.815Z,20.10
2019-05-20T09:44:49.842Z,18.07
2019-05-20T09:47:26.297Z,18.40
2019-05-20T09:50:02.556Z,25.45
2019-05-20T09:52:39.707Z,30.65
2019-05-20T09:55:16.487Z,29.30
2019-05-20T09:57:52.839Z,24.43
2019-05-20T10:00:29.596Z,27.13
2019-05-20T10:03:07.206Z,24.65
2019-05-20T10:05:44.372Z,21.37
2019-05-20T10:08:36.339Z,17.95
2019-05-20T10:10:59.697Z,27.17
2019-05-20T10:13:36.334Z,22.55
2019-05-20T10:16:13.418Z,31.27
2019-05-20T10:18:49.906Z,28.95
2019-05-20T10:21:26.219Z,25.97
2019-05-20T10:24:02.729Z,29.72
2019-05-20T10:26:40.342Z,32.67
2019-05-20T10:29:17.398Z,28.80
2019-05-20T10:31:53.833Z,27.32
2019-05-20T10:34:30.323Z,26.62
2019-05-20T10:37:06.467Z,30.17
2019-05-20T10:39:42.366Z,32.17
2019-05-20T10:42:19.444Z,33.13
2019-05-20T10:44:57.361Z,66.92
2019-05-20T10:47:33.767Z,45.00
2019-05-20T10:50:10.330Z,34.33
2019-05-20T10:52:46.514Z,40.05
2019-05-20T10:55:22.962Z,28.75
2019-05-20T10:57:59.333Z,32.05
2019-05-20T11:00:35.820Z,24.40
2019-05-20T11:03:13.745Z,23.38
2019-05-20T11:05:50.467Z,27.35
2019-05-20T11:08:28.289Z,25.80
2019-05-20T11:11:04.690Z,26.23
2019-05-20T11:13:41.287Z,23.20
2019-05-20T11:16:17.979Z,26.82
2019-05-20T11:18:54.647Z,21.93
2019-05-20T11:21:30.857Z,21.90
2019-05-20T11:24:07.410Z,28.00
2019-05-20T11:26:43.566Z,22.60
2019-05-20T11:29:21.789Z,26.10
2019-05-20T11:31:58.391Z,20.08
2019-05-20T11:34:34.162Z,19.00
2019-05-20T11:37:11.747Z,18.85
2019-05-20T11:39:48.192Z,25.75
2019-05-20T11:42:24.372Z,26.35
2019-05-20T11:45:01.544Z,27.42
2019-05-20T11:47:37.906Z,31.07
2019-05-20T11:50:15.033Z,30.70
2019-05-20T11:52:51.697Z,27.73
2019-05-20T11:55:28.250Z,28.77
2019-05-20T11:58:15.488Z,41.15
2019-05-20T12:00:42.812Z,37.03
2019-05-20T12:03:20.035Z,50.58
2019-05-20T12:05:55.643Z,50.85
2019-05-20T12:08:32.233Z,56.77
2019-05-20T12:11:08.984Z,63.35
2019-05-20T12:13:45.860Z,74.62
2019-05-20T12:16:22.729Z,74.65
2019-05-20T12:18:59.384Z,82.37
2019-05-20T12:21:35.942Z,97.78
2019-05-20T12:24:12.809Z,102.60
2019-05-20T12:26:49.325Z,81.32
2019-05-20T12:29:25.574Z,94.87
2019-05-20T12:32:03.579Z,130.93
2019-05-20T12:34:40.959Z,125.97
2019-05-20T12:37:17.554Z,115.20
2019-05-20T12:40:06.333Z,105.03
2019-05-20T12:42:31.467Z,112.47
2019-05-20T12:45:07.878Z,67.40
2019-05-20T12:47:44.233Z,70.72
2019-05-20T12:50:21.116Z,48.10
2019-05-20T12:52:57.814Z,42.67
2019-05-20T12:55:34.562Z,41.98
2019-05-20T12:58:10.809Z,46.45
2019-05-20T13:00:46.750Z,51.20
2019-05-20T13:03:23.404Z,57.25
2019-05-20T13:05:59.987Z,45.15
2019-05-20T13:08:36.032Z,48.00
2019-05-20T13:11:12.780Z,58.90
2019-05-20T13:13:49.454Z,64.90
2019-05-20T13:16:25.910Z,79.03
2019-05-20T13:19:02.639Z,77.35
2019-05-20T13:21:39.171Z,82.78
2019-05-20T13:24:15.516Z,84.92
2019-05-20T13:26:52.358Z,88.30
2019-05-20T13:29:29.019Z,73.85
2019-05-20T13:32:05.651Z,111.95
2019-05-20T13:34:42.283Z,76.72
2019-05-20T13:37:19.589Z,71.50
2019-05-20T13:39:56.120Z,71.33
2019-05-20T13:42:32.688Z,48.73
2019-05-20T13:45:09.768Z,44.80
2019-05-20T13:47:46.366Z,41.55
2019-05-20T13:50:25.149Z,35.83
2019-05-20T13:53:04.023Z,31.33
2019-05-20T13:55:42.897Z,37.28
2019-05-20T13:58:21.833Z,37.65
2019-05-20T14:01:00.588Z,36.35
2019-05-20T14:03:38.732Z,32.83
2019-05-20T14:06:17.480Z,29.92
2019-05-20T14:49:02.786Z,56.65
2019-05-20T14:51:39.304Z,55.98
2019-05-20T14:54:15.521Z,46.50
2019-05-20T14:56:51.637Z,27.67
2019-05-20T14:59:28.047Z,32.70
2019-05-20T15:02:04.481Z,38.65
2019-05-20T15:04:41.281Z,32.83
2019-05-20T15:07:29.199Z,36.83
2019-05-20T15:09:55.880Z,32.58
2019-05-20T15:12:31.923Z,33.00
2019-05-20T15:15:09.094Z,33.38
2019-05-20T15:17:45.460Z,31.10
2019-05-20T15:20:22.201Z,27.80
2019-05-20T15:22:58.831Z,30.62
2019-05-20T15:25:35.218Z,27.05
2019-05-20T15:28:13.111Z,26.65
2019-05-20T15:30:49.764Z,31.82
2019-05-20T15:33:26.642Z,27.65
2019-05-20T15:36:03.758Z,24.65
2019-05-20T15:38:40.570Z,29.02
2019-05-20T15:41:17.107Z,22.00
2019-05-20T15:43:53.479Z,25.45
2019-05-20T15:46:30.083Z,25.65
2019-05-20T15:49:06.622Z,24.65
2019-05-20T15:51:43.062Z,24.92
2019-05-20T15:54:20.175Z,30.17
2019-05-20T15:56:56.597Z,28.50
2019-05-20T15:59:45.717Z,25.82
2019-05-20T16:02:11.218Z,24.02
2019-05-20T16:04:47.807Z,25.25
2019-05-20T16:07:24.629Z,30.32
2019-05-20T16:10:01.194Z,27.48
2019-05-20T16:12:39.071Z,26.23
2019-05-20T16:15:16.213Z,33.58
2019-05-20T16:17:53.204Z,44.48
2019-05-20T16:20:30.001Z,44.10
2019-05-20T16:23:07.164Z,38.67
2019-05-20T16:25:44.113Z,30.32
2019-05-20T16:28:20.470Z,37.48
2019-05-20T16:30:57.179Z,30.50
2019-05-20T16:33:34.130Z,28.57
2019-05-20T16:36:10.705Z,21.97
2019-05-20T16:38:47.658Z,23.52
2019-05-20T16:41:25.182Z,22.17
2019-05-20T16:44:01.820Z,21.97
2019-05-20T16:46:38.508Z,23.18
2019-05-20T16:49:15.085Z,22.37
2019-05-20T16:51:52.792Z,21.95
2019-05-20T16:54:29.590Z,21.12
2019-05-20T16:57:05.894Z,24.10
2019-05-20T16:59:42.381Z,19.75
2019-05-20T17:02:18.847Z,24.05
2019-05-20T17:04:55.452Z,19.12
2019-05-20T17:07:32.236Z,21.77
2019-05-20T17:10:09.752Z,18.67
2019-05-20T17:12:46.393Z,18.27
2019-05-20T17:15:23.001Z,21.10
2019-05-20T17:17:59.427Z,24.32
2019-05-20T17:20:35.843Z,20.40
2019-05-20T17:23:13.009Z,23.38
2019-05-20T17:25:50.765Z,19.17
2019-05-20T17:28:26.914Z,25.62
2019-05-20T17:31:03.604Z,21.57
2019-05-20T17:33:40.079Z,23.45
2019-05-20T17:36:16.894Z,24.32
2019-05-20T17:38:53.741Z,24.47
2019-05-20T17:41:30.406Z,20.43
2019-05-20T17:44:07.248Z,18.85
2019-05-20T17:46:44.350Z,20.77
2019-05-20T17:49:20.979Z,21.68
2019-05-20T17:51:57.897Z,17.87
2019-05-20T17:54:35.121Z,15.05
2019-05-20T17:57:12.045Z,19.32
2019-05-20T17:59:49.169Z,17.85
2019-05-20T18:02:25.851Z,20.32
2019-05-20T18:05:02.670Z,23.62
2019-05-20T18:07:39.423Z,22.58
2019-05-20T18:10:16.939Z,19.05
2019-05-20T18:12:53.590Z,19.52
2019-05-20T18:15:30.480Z,19.45
2019-05-20T18:18:07.134Z,20.95
2019-05-20T18:20:43.604Z,17.55
2019-05-20T18:23:20.064Z,18.92
2019-05-20T18:25:56.721Z,19.87
2019-05-20T18:28:33.143Z,16.90
2019-05-20T18:31:09.875Z,18.15
2019-05-20T18:33:46.228Z,23.22
2019-05-20T18:36:23.114Z,19.25
2019-05-20T18:39:00.072Z,21.73
2019-05-20T18:41:37.408Z,24.50
2019-05-20T18:44:14.889Z,19.52
2019-05-20T18:46:51.709Z,22.40
2019-05-20T18:49:27.522Z,23.92
2019-05-20T18:52:04.209Z,21.48
2019-05-20T18:54:40.558Z,24.72
2019-05-20T18:57:17.052Z,25.68
2019-05-20T18:59:53.379Z,25.12
2019-05-20T19:02:48.477Z,27.80
2019-05-20T19:05:25.197Z,31.37
2019-05-20T19:08:02.117Z,25.25
2019-05-20T19:10:38.754Z,29.18
2019-05-20T19:13:15.571Z,29.10
2019-05-20T19:15:52.245Z,21.23
2019-05-20T19:18:28.803Z,28.30
2019-05-20T19:21:05.519Z,27.30
2019-05-20T19:23:42.698Z,28.20
2019-05-20T19:26:25.045Z,32.67
2019-05-20T19:28:57.589Z,33.15
2019-05-20T19:31:34.113Z,28.87
2019-05-20T19:34:10.975Z,25.37
2019-05-20T19:36:47.630Z,26.97
2019-05-20T19:39:25.890Z,24.27
2019-05-20T19:42:02.822Z,20.40
2019-05-20T19:44:39.356Z,24.47
2019-05-20T19:47:15.645Z,22.02
2019-05-20T19:49:52.032Z,21.40
2019-05-20T19:52:30.184Z,24.57
2019-05-20T19:55:06.576Z,20.70
2019-05-20T19:57:42.919Z,19.77
2019-05-20T20:00:20.075Z,25.20
2019-05-20T20:02:56.823Z,22.45
2019-05-20T20:05:33.526Z,22.02
2019-05-20T20:08:10.111Z,22.00
2019-05-20T20:10:46.686Z,22.87
2019-05-20T20:13:23.657Z,17.07
2019-05-20T20:16:01.272Z,26.07
2019-05-20T20:18:37.964Z,27.65
2019-05-20T20:21:14.610Z,26.20
2019-05-20T20:23:52.322Z,27.55
2019-05-20T20:26:29.036Z,23.50
2019-05-20T20:29:05.641Z,21.93
2019-05-20T20:31:42.431Z,28.15
2019-05-20T20:34:20.058Z,23.22
2019-05-20T20:36:56.617Z,26.37
2019-05-20T20:39:34.428Z,24.18
2019-05-20T20:42:11.563Z,25.40
2019-05-20T20:44:48.265Z,23.20
2019-05-20T20:47:25.061Z,22.48
2019-05-20T20:50:01.777Z,18.82
2019-05-20T20:52:38.958Z,21.10
2019-05-20T20:55:15.861Z,24.87
2019-05-20T20:57:52.342Z,28.55
2019-05-20T21:00:29.493Z,27.27
2019-05-20T21:03:06.311Z,24.98
2019-05-20T21:05:43.154Z,22.32
2019-05-20T21:08:19.502Z,23.73
2019-05-20T21:10:55.997Z,21.70
2019-05-20T21:13:32.791Z,23.18
2019-05-20T21:16:09.597Z,25.15
2019-05-20T21:18:46.165Z,24.55
2019-05-20T21:21:23.043Z,24.95
2019-05-20T21:23:59.965Z,32.88
2019-05-20T21:26:36.483Z,26.40
2019-05-20T21:29:13.607Z,24.35
2019-05-20T21:31:49.953Z,23.45
2019-05-20T21:34:26.682Z,24.12
2019-05-20T21:37:03.500Z,24.27
2019-05-20T21:39:39.895Z,21.90
2019-05-20T21:42:16.342Z,24.70
2019-05-20T21:44:52.718Z,24.80
2019-05-20T21:47:29.309Z,23.90
2019-05-20T21:50:05.978Z,25.55
2019-05-20T21:52:42.739Z,30.08
2019-05-20T21:55:19.312Z,25.20
2019-05-20T21:57:56.061Z,27.45
2019-05-20T22:00:54.576Z,25.08
2019-05-20T22:03:31.444Z,35.17
2019-05-20T22:06:08.012Z,27.22
2019-05-20T22:08:44.644Z,27.15
2019-05-20T22:11:21.138Z,30.50
2019-05-20T22:13:57.770Z,35.52
2019-05-20T22:16:34.668Z,28.38
2019-05-20T22:19:11.522Z,38.05
2019-05-20T22:21:57.215Z,27.15
2019-05-20T22:24:33.947Z,32.03
2019-05-20T22:27:10.037Z,24.07
2019-05-20T22:29:46.935Z,31.10
2019-05-20T22:32:23.489Z,36.63
2019-05-20T22:34:59.777Z,25.08
2019-05-20T22:37:36.633Z,23.50
2019-05-20T22:40:13.941Z,31.05
2019-05-20T22:42:50.436Z,26.75
2019-05-20T22:45:26.770Z,32.17
2019-05-20T22:48:04.012Z,27.48
2019-05-20T22:50:40.478Z,36.93
2019-05-20T22:53:33.170Z,32.90
2019-05-20T22:56:09.798Z,30.75
2019-05-20T22:58:46.511Z,35.38
2019-05-20T23:01:22.996Z,32.98
2019-05-20T23:03:59.665Z,42.80
2019-05-20T23:06:35.981Z,38.70
2019-05-20T23:09:14.900Z,44.42
2019-05-20T23:11:51.143Z,39.60
2019-05-20T23:14:27.856Z,45.98
2019-05-20T23:17:04.435Z,38.10
2019-05-20T23:19:41.117Z,41.68
2019-05-20T23:22:17.782Z,37.45
2019-05-20T23:24:53.988Z,42.88
2019-05-20T23:27:30.917Z,41.00
2019-05-20T23:30:07.567Z,37.10
2019-05-20T23:32:44.207Z,34.48
2019-05-20T23:35:20.729Z,42.40
2019-05-20T23:37:57.341Z,37.98
2019-05-20T23:40:33.895Z,39.80
2019-05-20T23:43:10.618Z,40.45
2019-05-20T23:45:46.863Z,39.40
2019-05-20T23:48:24.416Z,34.38
2019-05-20T23:51:00.876Z,31.87
2019-05-20T23:53:37.216Z,31.65
2019-05-20T23:56:13.956Z,30.70
2019-05-20T23:58:50.232Z,31.55
